Time;durP1;ratioP1;P1;durP2;ratioP2;P2;SDS_P1;SDS_P2;PMS_P1;PMS_P2;Temp;Humidity;BMP_temperature;BMP_pressure;BME280_temperature;BME280_humidity;BME280_pressure;Samples;Min_cycle;Max_cycle;Signal;HPM_P1;HPM_P2
2021/12/09 00:01:43;;;;;;;7.38;2.33;;;3.80;99.90;;;;;;5036156;28;20033;-62
2021/12/09 00:04:13;;;;;;;6.57;2.90;;;3.80;99.90;;;;;;5035790;28;20406;-61
2021/12/09 00:06:42;;;;;;;5.85;2.10;;;3.80;99.90;;;;;;5036597;28;20022;-62
2021/12/09 00:09:11;;;;;;;8.40;2.70;;;3.70;99.90;;;;;;5035654;28;20033;-62
2021/12/09 00:11:43;;;;;;;6.72;2.75;;;3.70;99.90;;;;;;5034917;28;20132;-64
2021/12/09 00:14:16;;;;;;;9.25;2.55;;;3.70;99.90;;;;;;5034989;28;20045;-62
2021/12/09 00:16:43;;;;;;;6.75;3.45;;;3.70;99.90;;;;;;5035165;28;20025;-62
2021/12/09 00:19:09;;;;;;;12.30;2.50;;;3.70;99.90;;;;;;5034703;28;20030;-62
2021/12/09 00:21:35;;;;;;;4.55;2.35;;;3.70;99.90;;;;;;5067977;28;20025;-62
2021/12/09 00:24:01;;;;;;;3.22;2.08;;;3.70;99.90;;;;;;5034675;28;20042;-62
2021/12/09 00:26:27;;;;;;;7.30;2.63;;;3.60;99.90;;;;;;5035432;28;20040;-62
2021/12/09 00:28:54;;;;;;;8.05;2.58;;;3.70;99.90;;;;;;5034659;28;20047;-62
2021/12/09 00:31:20;;;;;;;5.47;2.78;;;3.60;99.90;;;;;;5035281;28;20121;-61
2021/12/09 00:33:47;;;;;;;8.52;2.72;;;3.60;99.90;;;;;;5034923;28;20108;-63
2021/12/09 00:36:26;;;;;;;8.23;2.95;;;3.60;99.90;;;;;;5035219;28;20379;-62
2021/12/09 00:38:57;;;;;;;6.57;2.80;;;3.60;99.90;;;;;;5034741;28;20332;-62
2021/12/09 00:41:23;;;;;;;7.88;3.13;;;3.60;99.90;;;;;;5035149;28;20413;-62
2021/12/09 00:43:49;;;;;;;6.70;2.75;;;3.60;99.90;;;;;;5035035;28;20041;-62
2021/12/09 00:46:15;;;;;;;12.50;2.92;;;3.60;99.90;;;;;;5034279;28;20034;-62
2021/12/09 00:48:42;;;;;;;6.65;3.20;;;3.60;99.90;;;;;;5035055;28;20037;-62
2021/12/09 00:51:09;;;;;;;7.20;2.80;;;3.60;99.90;;;;;;5035042;28;20127;-62
2021/12/09 00:53:36;;;;;;;7.82;3.10;;;3.60;99.90;;;;;;5034318;28;20409;-64
2021/12/09 00:56:05;;;;;;;6.53;2.40;;;3.60;99.90;;;;;;5034956;28;20021;-62
2021/12/09 00:58:31;;;;;;;9.10;2.75;;;3.60;99.90;;;;;;5034845;28;20059;-62
2021/12/09 01:00:57;;;;;;;8.88;2.83;;;3.50;99.90;;;;;;5034944;28;20389;-64
2021/12/09 01:03:23;;;;;;;10.95;2.42;;;3.50;99.90;;;;;;5034082;28;20056;-61
2021/12/09 01:05:49;;;;;;;9.82;2.72;;;3.50;99.90;;;;;;5050795;28;20034;-62
2021/12/09 01:08:15;;;;;;;8.13;2.70;;;3.40;99.90;;;;;;5034751;28;20454;-62
2021/12/09 01:10:41;;;;;;;6.45;2.50;;;3.40;99.90;;;;;;5034660;28;20061;-61
2021/12/09 01:13:08;;;;;;;10.60;2.80;;;3.40;99.90;;;;;;5034141;28;20041;-61
2021/12/09 01:15:34;;;;;;;8.30;2.65;;;3.50;99.90;;;;;;5035339;28;20410;-62
2021/12/09 01:18:00;;;;;;;8.32;2.85;;;3.50;99.90;;;;;;5033868;28;20170;-62
2021/12/09 01:20:27;;;;;;;6.35;2.30;;;3.50;99.90;;;;;;5034635;28;20033;-62
2021/12/09 01:22:55;;;;;;;9.32;2.40;;;3.50;99.90;;;;;;5034651;28;20029;-61
2021/12/09 01:25:23;;;;;;;11.30;2.45;;;3.50;99.90;;;;;;5034473;28;20036;-62
2021/12/09 01:27:51;;;;;;;8.05;2.20;;;3.50;99.90;;;;;;5034489;28;20022;-62
2021/12/09 01:30:20;;;;;;;9.07;2.30;;;3.50;99.90;;;;;;5034427;28;20029;-62
2021/12/09 01:32:50;;;;;;;9.32;2.58;;;3.50;99.90;;;;;;5034304;28;20026;-62
2021/12/09 01:35:28;;;;;;;5.60;2.40;;;3.50;99.90;;;;;;5034369;28;20021;-62
2021/12/09 01:37:58;;;;;;;8.00;2.22;;;3.50;99.90;;;;;;5033378;28;20030;-62
2021/12/09 01:40:25;;;;;;;9.13;2.63;;;3.50;99.90;;;;;;5034673;28;20030;-62
2021/12/09 01:42:52;;;;;;;6.88;2.50;;;3.50;99.90;;;;;;5034048;28;20055;-62
2021/12/09 01:45:19;;;;;;;13.23;2.53;;;3.50;99.90;;;;;;5034223;28;20030;-62
2021/12/09 01:47:46;;;;;;;8.95;2.40;;;3.50;99.90;;;;;;5034123;28;20368;-63
2021/12/09 01:50:13;;;;;;;4.25;1.80;;;3.40;99.90;;;;;;5034112;28;20140;-61
2021/12/09 01:52:40;;;;;;;7.85;2.00;;;3.40;99.90;;;;;;5034132;28;20034;-64
2021/12/09 01:55:09;;;;;;;10.43;2.30;;;3.40;99.90;;;;;;5033500;28;20259;-62
2021/12/09 01:57:35;;;;;;;8.02;2.33;;;3.30;99.90;;;;;;5033277;28;20090;-62
2021/12/09 02:00:04;;;;;;;9.32;2.45;;;3.30;99.90;;;;;;5034151;28;20395;-62
2021/12/09 02:02:30;;;;;;;8.85;2.33;;;3.30;99.90;;;;;;5033647;28;20302;-64
2021/12/09 02:04:56;;;;;;;7.40;2.10;;;3.30;99.90;;;;;;5033977;28;20030;-61
2021/12/09 02:07:21;;;;;;;7.75;2.65;;;3.30;99.90;;;;;;5033857;28;20142;-62
2021/12/09 02:09:47;;;;;;;7.03;2.30;;;3.30;99.90;;;;;;5034326;28;20029;-62
2021/12/09 02:12:13;;;;;;;8.32;2.05;;;3.30;99.90;;;;;;5033827;28;20025;-64
2021/12/09 02:14:42;;;;;;;7.32;2.50;;;3.30;99.90;;;;;;5033886;28;20072;-62
2021/12/09 02:17:10;;;;;;;8.27;2.35;;;3.30;99.90;;;;;;5033884;28;20117;-62
2021/12/09 02:19:41;;;;;;;7.65;2.30;;;3.30;99.90;;;;;;5033003;28;20029;-62
2021/12/09 02:22:07;;;;;;;8.30;2.10;;;3.30;99.90;;;;;;5033746;28;20156;-62
2021/12/09 02:24:33;;;;;;;7.47;2.20;;;3.30;99.90;;;;;;5033711;28;20041;-62
2021/12/09 02:26:59;;;;;;;5.55;2.05;;;3.30;99.90;;;;;;5032777;28;20381;-62
2021/12/09 02:29:24;;;;;;;9.90;2.08;;;3.30;99.90;;;;;;5033606;28;20034;-62
2021/12/09 02:31:56;;;;;;;7.10;2.28;;;3.30;99.90;;;;;;5033566;28;20029;-62
2021/12/09 02:34:22;;;;;;;4.10;1.60;;;3.30;99.90;;;;;;5033917;28;20112;-62
2021/12/09 02:36:51;;;;;;;9.85;1.92;;;3.30;99.90;;;;;;5033590;28;20033;-62
2021/12/09 02:39:17;;;;;;;5.53;1.80;;;3.30;99.90;;;;;;5032921;28;20144;-62
2021/12/09 02:41:46;;;;;;;8.30;2.15;;;3.40;99.90;;;;;;5032940;28;20432;-62
2021/12/09 02:44:16;;;;;;;8.13;1.88;;;3.40;99.90;;;;;;5033258;28;20049;-62
2021/12/09 02:46:42;;;;;;;7.13;2.00;;;3.40;99.90;;;;;;5033419;28;20040;-62
2021/12/09 02:49:17;;;;;;;7.93;1.88;;;3.40;99.90;;;;;;5033322;28;20453;-62
2021/12/09 02:51:45;;;;;;;5.22;1.70;;;3.50;99.90;;;;;;5033158;28;20094;-62
2021/12/09 02:54:14;;;;;;;7.80;1.92;;;3.50;99.90;;;;;;5032571;28;20048;-62
2021/12/09 02:56:41;;;;;;;3.70;1.45;;;3.50;99.90;;;;;;5033731;28;20087;-62
2021/12/09 02:59:08;;;;;;;6.00;2.00;;;3.50;99.90;;;;;;5033290;28;20033;-62
2021/12/09 03:01:39;;;;;;;5.00;1.85;;;3.50;99.90;;;;;;5033156;28;20051;-62
2021/12/09 03:04:05;;;;;;;7.55;2.25;;;3.50;99.90;;;;;;5032489;28;20044;-61
2021/12/09 03:06:40;;;;;;;6.68;1.67;;;3.60;99.90;;;;;;5033210;28;20086;-62
2021/12/09 03:09:17;;;;;;;10.23;2.47;;;3.60;99.90;;;;;;5033197;28;20057;-62
2021/12/09 03:11:53;;;;;;;6.63;1.40;;;3.60;99.90;;;;;;5033577;28;20042;-62
2021/12/09 03:14:19;;;;;;;8.85;1.90;;;3.60;99.90;;;;;;5033380;28;20121;-62
2021/12/09 03:16:45;;;;;;;5.93;2.08;;;3.60;99.90;;;;;;5036609;28;20025;-62
2021/12/09 03:19:12;;;;;;;6.63;1.67;;;3.60;99.90;;;;;;5036405;28;20021;-62
2021/12/09 03:21:40;;;;;;;8.07;1.88;;;3.50;99.90;;;;;;5035704;28;20030;-62
2021/12/09 03:24:12;;;;;;;8.75;2.08;;;3.50;99.90;;;;;;5052236;28;20124;-62
2021/12/09 03:26:46;;;;;;;6.32;1.65;;;3.50;99.90;;;;;;5036771;28;20120;-62
2021/12/09 03:29:14;;;;;;;6.53;1.60;;;3.50;99.90;;;;;;5036420;28;20061;-64
2021/12/09 03:31:43;;;;;;;9.48;1.80;;;3.50;99.90;;;;;;5036345;28;20040;-62
2021/12/09 03:34:10;;;;;;;7.70;1.90;;;3.50;99.90;;;;;;5036155;28;20386;-62
2021/12/09 03:36:37;;;;;;;5.20;1.92;;;3.50;99.90;;;;;;5035595;28;20037;-62
2021/12/09 03:39:09;;;;;;;8.27;2.00;;;3.50;99.90;;;;;;5036157;28;20045;-62
2021/12/09 03:41:35;;;;;;;5.10;1.77;;;3.50;99.90;;;;;;5036331;28;20347;-62
2021/12/09 03:44:01;;;;;;;6.32;2.10;;;3.50;99.90;;;;;;5035321;28;20054;-63
2021/12/09 03:46:27;;;;;;;9.60;2.05;;;3.50;99.90;;;;;;5035363;28;20083;-62
2021/12/09 03:48:53;;;;;;;6.60;1.92;;;3.50;99.90;;;;;;5035530;28;20264;-62
2021/12/09 03:51:19;;;;;;;8.32;2.05;;;3.60;99.90;;;;;;5036096;28;20495;-62
2021/12/09 03:53:45;;;;;;;8.65;2.40;;;3.60;99.90;;;;;;5036015;28;20400;-63
2021/12/09 03:56:11;;;;;;;5.43;1.88;;;3.60;99.90;;;;;;5035738;28;20271;-62
2021/12/09 03:58:36;;;;;;;5.80;1.55;;;3.50;99.90;;;;;;5035778;28;20115;-61
2021/12/09 04:01:03;;;;;;;7.93;2.08;;;3.40;99.90;;;;;;5035881;28;20029;-61
2021/12/09 04:03:29;;;;;;;7.13;2.50;;;3.40;99.90;;;;;;5035935;28;20033;-62
2021/12/09 04:05:55;;;;;;;8.48;2.40;;;3.30;99.90;;;;;;5035094;28;20141;-62
2021/12/09 04:08:21;;;;;;;8.90;2.53;;;3.40;99.90;;;;;;5035913;28;20044;-63
2021/12/09 04:10:49;;;;;;;8.50;3.03;;;3.40;99.90;;;;;;5035723;28;20042;-62
2021/12/09 04:13:16;;;;;;;10.68;3.05;;;3.30;99.90;;;;;;5035527;28;20045;-62
2021/12/09 04:15:43;;;;;;;6.43;2.78;;;3.30;99.90;;;;;;5035632;28;20048;-62
2021/12/09 04:18:09;;;;;;;6.47;2.92;;;3.30;99.90;;;;;;5018281;28;20053;-62
2021/12/09 04:20:36;;;;;;;9.95;3.55;;;3.30;99.90;;;;;;5035616;28;20397;-62
2021/12/09 04:23:03;;;;;;;9.70;2.60;;;3.20;99.90;;;;;;5035506;28;20287;-62
2021/12/09 04:25:29;;;;;;;9.27;2.97;;;3.30;99.90;;;;;;5035131;28;20033;-62
2021/12/09 04:27:56;;;;;;;7.50;2.88;;;3.30;99.90;;;;;;5034719;28;20029;-62
2021/12/09 04:30:23;;;;;;;15.95;3.08;;;3.20;99.90;;;;;;5035421;28;20045;-61
2021/12/09 04:32:52;;;;;;;4.90;2.85;;;3.20;99.90;;;;;;5035286;28;20126;-62
2021/12/09 04:35:18;;;;;;;10.57;3.10;;;3.10;99.90;;;;;;5035384;28;20109;-62
2021/12/09 04:37:45;;;;;;;9.10;2.75;;;3.10;99.90;;;;;;5035373;28;20029;-62
2021/12/09 04:40:12;;;;;;;10.98;2.65;;;3.20;99.90;;;;;;5035364;28;20025;-61
2021/12/09 04:42:39;;;;;;;11.30;3.10;;;3.20;99.90;;;;;;5035022;28;20061;-62
2021/12/09 04:45:07;;;;;;;8.90;2.90;;;3.20;99.90;;;;;;5035555;28;20108;-62
2021/12/09 04:47:33;;;;;;;9.05;3.10;;;3.20;99.90;;;;;;5035232;28;20386;-62
2021/12/09 04:49:59;;;;;;;9.77;2.75;;;3.20;99.90;;;;;;5035207;28;20060;-62
2021/12/09 04:52:25;;;;;;;7.78;3.08;;;3.20;99.90;;;;;;5035216;28;20461;-62
2021/12/09 04:54:51;;;;;;;8.15;2.75;;;3.20;99.90;;;;;;5035085;28;20144;-62
2021/12/09 04:57:17;;;;;;;10.20;2.67;;;3.20;99.90;;;;;;5034954;28;20340;-62
2021/12/09 04:59:44;;;;;;;11.65;3.05;;;3.20;99.90;;;;;;5034961;28;20033;-62
2021/12/09 05:02:18;;;;;;;7.55;2.78;;;3.20;99.90;;;;;;5034075;28;20068;-62
2021/12/09 05:04:44;;;;;;;8.68;2.63;;;3.20;99.90;;;;;;5034859;28;20033;-62
2021/12/09 05:07:10;;;;;;;8.77;2.65;;;3.30;99.90;;;;;;5033927;28;20263;-62
2021/12/09 05:09:39;;;;;;;12.05;2.85;;;3.30;99.90;;;;;;5034634;28;20033;-62
2021/12/09 05:12:05;;;;;;;10.30;2.90;;;3.30;99.90;;;;;;5033773;28;20133;-62
2021/12/09 05:14:31;;;;;;;10.70;2.78;;;3.20;99.90;;;;;;5034008;28;20086;-62
2021/12/09 05:16:58;;;;;;;9.88;3.00;;;3.20;99.90;;;;;;5034548;28;20030;-62
2021/12/09 05:19:24;;;;;;;10.68;2.85;;;3.20;99.90;;;;;;5034469;28;20026;-63
2021/12/09 05:21:53;;;;;;;8.18;2.67;;;3.20;99.90;;;;;;5017519;28;20034;-63
2021/12/09 05:24:19;;;;;;;7.03;2.55;;;3.10;99.90;;;;;;5033763;28;20275;-63
2021/12/09 05:26:50;;;;;;;7.20;2.72;;;3.20;99.90;;;;;;5034180;28;20030;-62
2021/12/09 05:29:18;;;;;;;10.23;2.75;;;3.20;99.90;;;;;;5033775;28;20025;-62
2021/12/09 05:34:29;;;;;;;8.40;3.03;;;3.20;99.90;;;;;;5034452;28;20037;-62
2021/12/09 05:36:55;;;;;;;9.48;2.70;;;3.20;99.90;;;;;;5033893;28;20113;-63
2021/12/09 05:39:21;;;;;;;7.10;2.72;;;3.20;99.90;;;;;;5033432;28;20041;-63
2021/12/09 05:41:48;;;;;;;6.97;2.42;;;3.30;99.90;;;;;;5034375;28;20291;-63
2021/12/09 05:44:15;;;;;;;10.20;2.92;;;3.30;99.90;;;;;;5034213;28;20052;-61
2021/12/09 05:46:46;;;;;;;10.05;3.08;;;3.30;99.90;;;;;;5034346;28;20105;-61
2021/12/09 05:49:13;;;;;;;8.63;2.65;;;3.30;99.90;;;;;;5034181;28;20038;-62
2021/12/09 05:51:40;;;;;;;7.32;2.45;;;3.30;99.90;;;;;;5033993;28;20051;-62
2021/12/09 05:54:06;;;;;;;7.25;2.85;;;3.30;99.90;;;;;;5033992;28;20037;-62
2021/12/09 05:56:32;;;;;;;11.77;2.72;;;3.40;99.90;;;;;;5033316;28;20029;-62
2021/12/09 05:58:58;;;;;;;5.15;2.47;;;3.40;99.90;;;;;;5033349;28;20361;-63
2021/12/09 06:01:24;;;;;;;9.20;2.35;;;3.50;99.90;;;;;;5033188;28;20116;-62
2021/12/09 06:03:50;;;;;;;9.60;2.75;;;3.40;99.90;;;;;;5033956;28;20113;-63
2021/12/09 06:06:16;;;;;;;8.57;2.70;;;3.40;99.90;;;;;;5033983;28;20158;-62
2021/12/09 06:08:42;;;;;;;9.80;2.50;;;3.40;99.90;;;;;;5033815;28;20090;-62
2021/12/09 06:11:10;;;;;;;7.18;2.85;;;3.50;99.90;;;;;;5033794;28;20037;-62
2021/12/09 06:13:37;;;;;;;5.80;2.22;;;3.50;99.90;;;;;;5016765;28;20116;-62
2021/12/09 06:16:05;;;;;;;9.93;2.92;;;3.50;99.90;;;;;;5033292;28;20036;-61
2021/12/09 06:18:31;;;;;;;8.90;2.47;;;3.60;99.90;;;;;;5033296;27;20026;-62
2021/12/09 06:20:57;;;;;;;12.77;2.90;;;3.70;99.90;;;;;;5033991;28;20034;-62
2021/12/09 06:23:23;;;;;;;8.07;2.40;;;3.60;99.90;;;;;;5034280;28;20056;-62
2021/12/09 06:25:50;;;;;;;10.55;2.95;;;3.60;99.90;;;;;;5033135;28;20305;-63
2021/12/09 06:28:17;;;;;;;7.28;2.70;;;3.60;99.90;;;;;;5032940;28;20029;-63
2021/12/09 06:30:44;;;;;;;11.35;2.78;;;3.60;99.90;;;;;;5034198;28;20041;-63
2021/12/09 06:33:10;;;;;;;12.95;3.60;;;3.50;99.90;;;;;;5032955;28;20121;-63
2021/12/09 06:35:37;;;;;;;9.98;2.80;;;3.50;99.90;;;;;;5034697;28;20171;-63
2021/12/09 06:38:04;;;;;;;15.35;2.88;;;3.50;99.90;;;;;;5033643;28;20378;-62
2021/12/09 06:40:30;;;;;;;8.18;2.80;;;3.50;99.90;;;;;;5032838;28;20041;-63
2021/12/09 06:42:56;;;;;;;8.63;2.70;;;3.50;99.90;;;;;;5033361;28;20053;-63
2021/12/09 06:45:24;;;;;;;8.48;2.50;;;3.50;99.90;;;;;;5033592;28;20038;-62
2021/12/09 06:47:50;;;;;;;9.70;2.75;;;3.60;99.90;;;;;;5033893;28;20048;-63
2021/12/09 06:50:18;;;;;;;4.75;2.70;;;3.60;99.90;;;;;;5037034;28;20413;-64
2021/12/09 06:52:44;;;;;;;8.63;2.38;;;3.60;99.90;;;;;;5037058;28;20045;-63
2021/12/09 06:55:14;;;;;;;9.95;2.78;;;3.60;99.90;;;;;;5020191;28;20030;-63
2021/12/09 06:57:44;;;;;;;10.55;3.08;;;3.50;99.90;;;;;;5037008;28;20382;-64
2021/12/09 07:00:17;;;;;;;9.90;2.78;;;3.50;99.90;;;;;;5037014;28;20040;-65
2021/12/09 07:02:46;;;;;;;10.57;2.53;;;3.50;99.90;;;;;;5036323;28;20041;-63
2021/12/09 07:05:14;;;;;;;6.60;2.85;;;3.50;99.90;;;;;;5036198;28;20267;-63
2021/12/09 07:07:40;;;;;;;8.70;2.13;;;3.60;99.90;;;;;;5036088;28;20046;-63
2021/12/09 07:10:08;;;;;;;9.35;2.42;;;3.60;99.90;;;;;;5037171;28;20033;-62
2021/12/09 07:12:35;;;;;;;9.50;2.65;;;3.60;99.90;;;;;;5036674;28;20034;-63
2021/12/09 07:15:04;;;;;;;7.80;2.97;;;3.60;99.90;;;;;;5036785;28;20036;-63
2021/12/09 07:17:30;;;;;;;9.85;3.15;;;3.60;99.90;;;;;;5035855;28;20067;-64
2021/12/09 07:19:55;;;;;;;7.50;2.50;;;3.70;99.90;;;;;;5035946;28;20110;-63
2021/12/09 07:22:21;;;;;;;7.55;2.20;;;3.70;99.90;;;;;;5036981;28;20044;-63
2021/12/09 07:24:47;;;;;;;14.75;2.65;;;3.70;99.90;;;;;;5036679;28;20022;-62
2021/12/09 07:27:13;;;;;;;15.00;3.38;;;4.10;99.90;;;;;;5036394;28;20406;-64
2021/12/09 07:29:39;;;;;;;9.38;2.78;;;4.20;99.90;;;;;;5036976;28;20065;-64
2021/12/09 07:32:05;;;;;;;8.85;2.58;;;3.90;99.90;;;;;;5036386;28;20302;-63
2021/12/09 07:34:31;;;;;;;5.47;2.20;;;3.80;99.90;;;;;;5036412;28;20443;-64
2021/12/09 07:37:02;;;;;;;8.93;2.45;;;3.90;99.90;;;;;;5036586;28;20042;-64
2021/12/09 07:39:28;;;;;;;9.25;3.25;;;3.90;99.90;;;;;;5036444;28;20094;-64
2021/12/09 07:41:56;;;;;;;8.70;2.72;;;3.80;99.90;;;;;;5035568;28;20033;-70
2021/12/09 07:44:23;;;;;;;12.93;3.15;;;3.80;99.90;;;;;;5018909;28;20049;-64
2021/12/09 07:46:51;;;;;;;9.48;3.35;;;3.80;99.90;;;;;;5035470;28;20094;-65
2021/12/09 07:49:17;;;;;;;8.27;3.05;;;3.90;99.90;;;;;;5035497;28;20329;-63
2021/12/09 07:51:42;;;;;;;6.60;3.40;;;3.90;99.90;;;;;;5035362;28;20034;-64
2021/12/09 07:54:08;;;;;;;7.97;3.88;;;4.00;99.90;;;;;;5035946;28;20044;-63
2021/12/09 07:56:34;;;;;;;16.15;4.00;;;4.00;99.90;;;;;;5035316;28;20410;-64
2021/12/09 07:59:00;;;;;;;5.60;3.03;;;4.00;99.90;;;;;;5035880;28;20298;-64
2021/12/09 08:01:26;;;;;;;6.80;3.83;;;4.00;99.90;;;;;;5034351;28;20061;-64
2021/12/09 08:03:52;;;;;;;10.23;3.65;;;4.00;99.90;;;;;;5034953;28;20068;-63
2021/12/09 08:06:18;;;;;;;10.45;3.58;;;4.10;99.90;;;;;;5035885;28;20378;-64
2021/12/09 08:08:44;;;;;;;8.38;3.78;;;4.10;99.90;;;;;;5018913;28;20034;-64
2021/12/09 08:11:10;;;;;;;8.60;3.60;;;4.10;99.90;;;;;;5036167;28;20036;-64
2021/12/09 08:13:36;;;;;;;11.32;4.25;;;4.20;99.90;;;;;;5018762;28;20156;-63
2021/12/09 08:16:02;;;;;;;11.05;4.38;;;4.20;99.90;;;;;;5035770;28;20041;-64
2021/12/09 08:18:30;;;;;;;9.93;4.18;;;4.20;99.90;;;;;;5035630;28;20041;-64
2021/12/09 08:21:01;;;;;;;10.55;4.80;;;4.30;99.90;;;;;;5018721;28;20040;-64
2021/12/09 08:23:28;;;;;;;13.30;4.70;;;4.30;99.90;;;;;;5035034;28;20029;-65
2021/12/09 08:25:55;;;;;;;9.10;4.38;;;4.30;99.90;;;;;;5035822;28;20057;-65
2021/12/09 08:28:21;;;;;;;7.00;3.90;;;4.40;99.90;;;;;;5034931;28;20439;-64
2021/12/09 08:30:50;;;;;;;10.65;4.78;;;4.30;99.90;;;;;;5035649;28;20041;-65
2021/12/09 08:33:17;;;;;;;11.90;5.20;;;4.30;99.90;;;;;;5035568;28;20037;-65
2021/12/09 08:35:43;;;;;;;8.27;4.60;;;4.30;99.90;;;;;;5035607;28;20048;-66
2021/12/09 08:38:09;;;;;;;10.75;4.82;;;4.30;99.90;;;;;;5051419;28;20033;-64
2021/12/09 08:40:36;;;;;;;8.25;4.68;;;4.30;99.90;;;;;;5035688;28;20025;-64
2021/12/09 08:43:03;;;;;;;8.18;5.00;;;4.30;99.90;;;;;;5034571;28;20049;-65
2021/12/09 08:45:29;;;;;;;10.70;5.05;;;4.30;99.90;;;;;;5034688;28;20079;-65
2021/12/09 08:47:55;;;;;;;9.25;4.80;;;4.30;99.90;;;;;;5034940;28;20154;-64
2021/12/09 08:50:23;;;;;;;8.75;5.03;;;4.40;99.90;;;;;;5034591;28;20109;-63
2021/12/09 08:52:52;;;;;;;10.00;5.13;;;4.50;99.90;;;;;;5035217;28;20065;-64
2021/12/09 08:55:19;;;;;;;10.73;5.15;;;4.50;99.90;;;;;;5034556;28;20030;-64
2021/12/09 08:57:48;;;;;;;7.93;5.25;;;4.40;99.90;;;;;;5035186;28;20034;-64
2021/12/09 09:00:17;;;;;;;9.68;5.32;;;4.40;99.90;;;;;;5034693;28;20025;-64
2021/12/09 09:02:44;;;;;;;11.05;5.25;;;4.50;99.90;;;;;;5035026;28;20244;-64
2021/12/09 09:05:11;;;;;;;15.02;5.57;;;4.60;99.90;;;;;;5034424;28;20049;-64
2021/12/09 09:07:38;;;;;;;9.43;5.10;;;4.60;99.90;;;;;;5035087;28;20125;-65
2021/12/09 09:10:05;;;;;;;6.85;5.30;;;4.70;99.90;;;;;;5035591;28;20029;-64
2021/12/09 09:12:33;;;;;;;10.13;5.07;;;4.70;99.90;;;;;;5034228;28;20044;-65
2021/12/09 09:15:00;;;;;;;8.55;4.70;;;4.60;99.90;;;;;;5034250;28;20025;-65
2021/12/09 09:17:26;;;;;;;9.70;4.93;;;4.60;99.90;;;;;;5035014;28;20086;-63
2021/12/09 09:19:53;;;;;;;8.80;4.90;;;4.60;99.90;;;;;;5035325;28;20036;-64
2021/12/09 09:22:19;;;;;;;9.85;5.32;;;4.80;99.90;;;;;;5034866;28;20029;-64
2021/12/09 09:24:44;;;;;;;9.80;5.07;;;4.80;99.90;;;;;;5035048;28;20033;-65
2021/12/09 09:27:12;;;;;;;9.15;5.10;;;4.70;99.90;;;;;;5035457;28;20428;-64
2021/12/09 09:29:40;;;;;;;7.45;5.13;;;4.80;99.90;;;;;;5034803;28;20425;-64
2021/12/09 09:32:07;;;;;;;7.30;4.65;;;4.80;99.90;;;;;;5033824;28;20359;-64
2021/12/09 09:34:34;;;;;;;12.75;5.68;;;4.70;99.90;;;;;;5033945;28;20429;-64
2021/12/09 09:37:00;;;;;;;11.40;5.10;;;4.70;99.90;;;;;;5034615;28;20026;-64
2021/12/09 09:39:29;;;;;;;11.55;5.45;;;4.70;99.90;;;;;;5034171;28;20021;-66
2021/12/09 09:42:17;;;;;;;6.38;5.03;;;4.70;99.90;;;;;;5033695;28;20041;-65
2021/12/09 09:44:54;;;;;;;7.00;5.00;;;4.70;99.90;;;;;;5034474;28;20050;-64
2021/12/09 09:47:27;;;;;;;8.38;5.15;;;4.80;99.90;;;;;;5034561;28;20053;-66
2021/12/09 09:49:55;;;;;;;8.57;4.85;;;4.80;99.90;;;;;;5034590;28;20041;-66
2021/12/09 09:52:21;;;;;;;7.85;5.15;;;4.90;99.90;;;;;;5034224;28;20138;-64
2021/12/09 09:54:47;;;;;;;6.80;5.28;;;5.00;99.90;;;;;;5033520;28;20389;-64
2021/12/09 09:57:14;;;;;;;6.43;5.10;;;4.90;99.90;;;;;;5034315;28;20021;-65
2021/12/09 09:59:42;;;;;;;7.85;5.13;;;5.00;99.90;;;;;;5034560;28;20431;-64
2021/12/09 10:02:09;;;;;;;5.88;5.30;;;5.00;99.90;;;;;;5050439;28;20032;-64
2021/12/09 10:07:02;;;;;;;6.38;5.00;;;5.10;99.90;;;;;;5034542;28;20410;-65
2021/12/09 10:09:28;;;;;;;8.68;5.10;;;5.10;99.90;;;;;;5034206;28;20393;-65
2021/12/09 10:11:55;;;;;;;9.07;5.50;;;5.00;99.90;;;;;;5034259;28;20097;-64
2021/12/09 10:14:33;;;;;;;7.75;5.22;;;5.00;99.90;;;;;;5033364;28;20033;-64
2021/12/09 10:17:04;;;;;;;6.25;5.30;;;4.90;99.90;;;;;;5034247;28;20375;-63
2021/12/09 10:19:31;;;;;;;8.30;5.60;;;4.90;99.90;;;;;;5034071;28;20345;-65
2021/12/09 10:22:10;;;;;;;10.85;5.88;;;4.90;99.90;;;;;;5034124;28;20018;-63
2021/12/09 10:24:38;;;;;;;10.38;5.45;;;5.00;99.90;;;;;;5034218;28;20052;-66
2021/12/09 10:27:07;;;;;;;8.55;5.75;;;4.90;99.90;;;;;;5034239;28;20025;-64
2021/12/09 10:29:38;;;;;;;7.85;5.97;;;4.90;99.90;;;;;;5033112;28;20029;-66
2021/12/09 10:32:09;;;;;;;11.32;5.90;;;5.00;99.90;;;;;;5066646;28;20034;-64
2021/12/09 10:34:41;;;;;;;8.68;5.93;;;5.00;99.90;;;;;;5016609;28;20041;-65
2021/12/09 10:37:14;;;;;;;10.80;6.82;;;4.90;99.90;;;;;;5033709;28;20030;-65
2021/12/09 10:40:11;;;;;;;10.73;6.97;;;5.00;99.90;;;;;;5016601;28;20063;-65
2021/12/09 10:42:43;;;;;;;8.80;6.18;;;5.20;99.90;;;;;;5033825;28;20061;-64
2021/12/09 10:45:16;;;;;;;9.45;6.72;;;5.10;99.90;;;;;;5033307;28;20049;-64
2021/12/09 10:47:59;;;;;;;10.57;6.37;;;5.20;99.90;;;;;;5033816;28;20125;-65
2021/12/09 10:50:45;;;;;;;12.43;6.72;;;5.20;99.90;;;;;;5033971;28;20315;-64
2021/12/09 10:55:54;;;;;;;12.95;6.50;;;5.40;99.90;;;;;;5033840;28;20041;-64
2021/12/09 10:58:29;;;;;;;10.75;6.38;;;5.40;99.90;;;;;;5033538;28;20044;-65
2021/12/09 11:01:12;;;;;;;12.25;6.28;;;5.50;99.90;;;;;;5033449;28;20033;-63
2021/12/09 11:03:49;;;;;;;9.73;6.45;;;5.50;99.90;;;;;;5033533;28;20109;-64
2021/12/09 11:06:19;;;;;;;11.40;6.47;;;5.50;99.90;;;;;;5016283;28;20034;-64
2021/12/09 11:08:53;;;;;;;12.23;6.40;;;5.70;99.90;;;;;;5033393;28;20059;-63
2021/12/09 11:11:33;;;;;;;10.57;6.28;;;5.80;99.90;;;;;;5030365;28;20034;-64
2021/12/09 11:14:04;;;;;;;10.68;6.35;;;5.80;99.90;;;;;;5013642;28;20041;-64
2021/12/09 11:16:33;;;;;;;11.32;6.00;;;5.80;99.90;;;;;;5013612;28;20064;-64
2021/12/09 11:19:13;;;;;;;11.43;6.57;;;5.70;99.90;;;;;;5013597;28;20018;-64
2021/12/09 11:21:45;;;;;;;12.90;6.65;;;5.70;99.90;;;;;;5013515;28;20033;-64
2021/12/09 11:24:15;;;;;;;12.80;6.10;;;5.70;99.90;;;;;;5013603;28;20026;-65
2021/12/09 11:26:59;;;;;;;11.13;5.95;;;6.00;99.90;;;;;;5012699;28;20026;-65
2021/12/09 11:29:35;;;;;;;17.50;6.60;;;6.10;99.90;;;;;;5013624;28;20042;-65
2021/12/09 11:35:15;;;;;;;13.45;5.97;;;6.20;99.90;;;;;;5033054;28;20298;-65
2021/12/09 11:37:53;;;;;;;8.55;5.25;;;6.10;99.90;;;;;;5032655;28;20397;-65
2021/12/09 11:40:33;;;;;;;10.77;5.47;;;6.10;99.90;;;;;;5029530;28;20030;-65
2021/12/09 11:43:01;;;;;;;11.40;6.10;;;6.10;99.90;;;;;;5016828;28;20418;-65
2021/12/09 11:45:30;;;;;;;16.45;6.95;;;6.00;99.90;;;;;;5015845;28;20034;-64
2021/12/09 11:47:58;;;;;;;10.73;6.15;;;6.00;99.90;;;;;;4999481;28;20410;-65
2021/12/09 11:50:27;;;;;;;12.93;6.20;;;6.00;99.90;;;;;;5016583;28;20026;-65
2021/12/09 11:52:55;;;;;;;13.57;6.47;;;5.90;99.90;;;;;;5016461;28;20044;-65
2021/12/09 11:55:29;;;;;;;12.32;6.00;;;5.90;99.90;;;;;;5016675;28;20050;-65
2021/12/09 11:58:00;;;;;;;12.73;5.85;;;6.00;99.90;;;;;;5015698;28;20333;-66
2021/12/09 12:07:33;;;;;;;12.57;6.50;;;6.00;99.90;;;;;;5015553;28;20033;-65
2021/12/09 12:21:13;;;;;;;12.35;6.15;;;6.00;99.90;;;;;;5016412;28;20042;-65
2021/12/09 12:37:49;;;;;;;16.08;5.90;;;6.50;99.90;;;;;;5015874;28;20276;-65
2021/12/09 12:40:32;;;;;;;15.02;5.80;;;6.50;99.90;;;;;;5015786;28;20105;-65
2021/12/09 12:46:21;;;;;;;14.38;6.30;;;6.80;99.90;;;;;;5016114;28;20026;-65
2021/12/09 12:51:35;;;;;;;13.98;5.95;;;7.00;99.90;;;;;;5015606;28;20050;-65
2021/12/09 12:54:21;;;;;;;14.85;5.63;;;7.20;99.90;;;;;;5015573;28;20076;-65
2021/12/09 12:56:54;;;;;;;14.88;5.45;;;7.20;99.90;;;;;;5015710;28;20038;-66
2021/12/09 12:59:33;;;;;;;14.50;5.80;;;7.30;99.90;;;;;;5015037;28;20018;-65
2021/12/09 13:05:17;;;;;;;14.75;5.38;;;7.00;99.90;;;;;;5015392;28;20118;-64
2021/12/09 13:10:44;;;;;;;17.17;5.30;;;7.50;99.90;;;;;;5015396;28;20029;-64
2021/12/09 13:13:45;;;;;;;12.77;4.95;;;7.50;99.90;;;;;;5015541;28;20116;-64
2021/12/09 13:16:23;;;;;;;15.75;4.88;;;7.30;99.90;;;;;;5015290;28;20394;-65
2021/12/09 13:21:35;;;;;;;13.32;4.82;;;7.50;99.90;;;;;;5015305;28;20298;-65
2021/12/09 13:24:20;;;;;;;11.95;4.20;;;7.50;99.90;;;;;;5015266;28;20072;-65
2021/12/09 13:27:18;;;;;;;17.08;5.15;;;7.50;99.90;;;;;;5015078;28;20030;-66
2021/12/09 13:46:30;;;;;;;11.60;4.90;;;7.00;99.90;;;;;;5015212;28;20381;-64
2021/12/09 13:49:00;;;;;;;12.27;4.90;;;6.90;99.90;;;;;;5014833;28;20049;-64
2021/12/09 13:56:48;;;;;;;10.70;4.32;;;6.90;99.90;;;;;;5014656;28;20022;-64
2021/12/09 13:59:18;;;;;;;15.73;4.47;;;7.00;99.90;;;;;;5013143;28;20082;-67
2021/12/09 14:01:46;;;;;;;14.15;4.72;;;7.00;99.90;;;;;;5014768;28;20109;-66
2021/12/09 14:04:14;;;;;;;14.88;4.55;;;6.90;99.90;;;;;;4997762;28;20038;-63
2021/12/09 14:06:58;;;;;;;11.25;4.28;;;6.90;99.90;;;;;;5014539;28;20033;-66
2021/12/09 14:09:27;;;;;;;14.43;4.90;;;6.70;99.90;;;;;;5014487;28;20037;-64
2021/12/09 14:11:53;;;;;;;14.32;5.60;;;6.70;99.90;;;;;;5013740;28;20110;-64
2021/12/09 14:14:28;;;;;;;13.00;4.57;;;6.60;99.90;;;;;;5014221;28;20033;-65
2021/12/09 14:17:02;;;;;;;14.15;4.68;;;6.70;99.90;;;;;;5014364;28;20053;-64
2021/12/09 14:21:57;;;;;;;15.82;5.72;;;6.70;99.90;;;;;;5014235;28;20030;-65
2021/12/09 14:24:27;;;;;;;14.77;5.00;;;6.70;99.90;;;;;;5014309;28;20299;-64